createdAt,value
2022-11-26T00:03:49.094Z,11.30
2022-11-26T00:08:52.043Z,11.30
2022-11-26T00:13:54.992Z,11.30
2022-11-26T00:18:59.231Z,11.40
2022-11-26T00:24:02.954Z,11.30
2022-11-26T00:29:05.831Z,11.30
2022-11-26T00:34:10.069Z,11.20
2022-11-26T00:39:16.734Z,11.20
2022-11-26T00:44:22.308Z,11.30
2022-11-26T00:49:28.644Z,11.20
2022-11-26T00:54:31.610Z,11.30
2022-11-26T00:59:35.533Z,11.30
2022-11-26T01:04:40.014Z,11.40
2022-11-26T01:09:45.522Z,11.30
2022-11-26T01:14:48.419Z,11.30
2022-11-26T01:19:52.746Z,11.30
2022-11-26T01:24:55.666Z,11.40
2022-11-26T01:29:58.562Z,11.40
2022-11-26T01:35:02.772Z,11.30
2022-11-26T01:40:24.069Z,11.20
2022-11-26T01:45:27.424Z,11.20
2022-11-26T01:50:58.253Z,11.20
2022-11-26T01:56:04.805Z,11.30
2022-11-26T02:01:08.091Z,11.30
2022-11-26T02:06:18.750Z,11.20
2022-11-26T02:11:23.988Z,11.20
2022-11-26T02:16:45.255Z,11.10
2022-11-26T02:21:57.611Z,11.10
2022-11-26T02:27:36.752Z,11.00
2022-11-26T02:32:52.117Z,11.00
2022-11-26T02:37:58.936Z,11.10
2022-11-26T02:43:02.182Z,11.20
2022-11-26T02:48:12.085Z,11.10
2022-11-26T02:53:16.989Z,11.10
2022-11-26T02:58:20.391Z,11.00
2022-11-26T03:03:28.186Z,11.10
2022-11-26T03:08:33.016Z,11.10
2022-11-26T03:13:35.945Z,11.00
2022-11-26T03:18:40.206Z,11.00
2022-11-26T03:23:43.099Z,10.80
2022-11-26T03:28:46.098Z,10.90
2022-11-26T03:33:50.325Z,10.80
2022-11-26T03:38:53.184Z,10.90
2022-11-26T03:43:56.087Z,11.00
2022-11-26T03:49:00.318Z,11.00
2022-11-26T03:54:03.464Z,11.00
2022-11-26T03:59:06.421Z,10.90
2022-11-26T04:04:10.656Z,10.90
2022-11-26T04:09:14.126Z,10.80
2022-11-26T04:14:17.170Z,10.90
2022-11-26T04:19:21.497Z,10.90
2022-11-26T04:24:24.511Z,10.90
2022-11-26T04:29:27.417Z,10.80
2022-11-26T04:34:31.882Z,10.70
2022-11-26T04:39:34.912Z,10.70
2022-11-26T04:44:38.183Z,10.80
2022-11-26T04:49:42.735Z,10.50
2022-11-26T04:54:45.638Z,10.60
2022-11-26T04:59:48.483Z,10.60
2022-11-26T05:04:52.716Z,10.60
2022-11-26T05:09:55.609Z,10.60
2022-11-26T05:14:58.538Z,10.70
2022-11-26T05:20:03.214Z,10.40
2022-11-26T05:25:06.637Z,10.40
2022-11-26T05:30:10.705Z,10.30
2022-11-26T05:35:14.963Z,10.40
2022-11-26T05:40:18.049Z,10.40
2022-11-26T05:45:20.964Z,10.40
2022-11-26T05:50:25.199Z,10.50
2022-11-26T05:55:29.405Z,10.50
2022-11-26T06:00:32.333Z,10.40
2022-11-26T06:05:36.571Z,10.40
2022-11-26T06:10:39.491Z,10.50
2022-11-26T06:15:42.499Z,10.50
2022-11-26T06:20:47.005Z,10.30
2022-11-26T06:25:49.896Z,10.20
2022-11-26T06:30:52.791Z,10.20
2022-11-26T06:36:01.313Z,10.30
2022-11-26T06:41:06.268Z,10.20
2022-11-26T06:46:11.033Z,10.20
2022-11-26T06:51:20.438Z,10.30
2022-11-26T06:56:23.504Z,10.30
2022-11-26T07:01:27.776Z,10.30
2022-11-26T07:06:33.587Z,10.30
2022-11-26T07:11:37.477Z,10.30
2022-11-26T07:16:41.462Z,10.10
2022-11-26T07:21:45.719Z,10.20
2022-11-26T07:26:49.675Z,10.30
2022-11-26T07:31:52.647Z,10.40
2022-11-26T07:36:58.346Z,10.40
2022-11-26T07:42:01.399Z,10.40
2022-11-26T07:47:04.448Z,10.50
2022-11-26T07:52:08.810Z,10.40
2022-11-26T07:57:12.278Z,10.40
2022-11-26T08:02:15.651Z,10.40
2022-11-26T08:07:24.711Z,10.40
2022-11-26T08:12:30.532Z,10.40
2022-11-26T08:17:33.456Z,10.40
2022-11-26T08:22:37.685Z,10.40
2022-11-26T08:27:42.669Z,10.40
2022-11-26T08:32:45.597Z,10.50
2022-11-26T08:37:49.835Z,10.40
2022-11-26T08:42:53.932Z,10.40
2022-11-26T08:47:56.826Z,10.40
2022-11-26T08:53:01.080Z,10.40
2022-11-26T08:58:03.991Z,10.40
2022-11-26T09:03:06.894Z,10.40
2022-11-26T09:08:11.196Z,10.30
2022-11-26T09:13:21.261Z,10.30
2022-11-26T09:18:24.384Z,10.40
2022-11-26T09:23:28.636Z,10.40
2022-11-26T09:28:31.521Z,10.20
2022-11-26T09:33:34.569Z,10.50
2022-11-26T09:38:39.688Z,10.60
2022-11-26T09:43:58.570Z,10.70
2022-11-26T09:49:05.372Z,10.70
2022-11-26T09:54:15.648Z,10.70
2022-11-26T09:59:21.552Z,10.70
2022-11-26T10:04:33.077Z,10.70
2022-11-26T10:09:52.251Z,10.80
2022-11-26T10:15:01.732Z,10.80
2022-11-26T10:20:48.288Z,10.90
2022-11-26T10:25:54.685Z,11.00
2022-11-26T10:31:00.248Z,11.00
2022-11-26T10:36:05.785Z,11.00
2022-11-26T10:41:10.413Z,11.10
2022-11-26T10:46:32.668Z,11.20
2022-11-26T10:51:37.655Z,11.30
2022-11-26T10:56:45.095Z,10.90
2022-11-26T11:01:51.504Z,11.10
2022-11-26T11:06:58.097Z,11.20
2022-11-26T11:12:21.862Z,11.30
2022-11-26T11:17:33.909Z,11.30
2022-11-26T11:22:37.861Z,11.40
2022-11-26T11:27:44.419Z,11.40
2022-11-26T11:32:47.655Z,11.40
2022-11-26T11:37:51.953Z,11.40
2022-11-26T11:43:00.131Z,11.40
2022-11-26T11:48:16.989Z,11.50
2022-11-26T11:53:31.234Z,11.50
2022-11-26T11:59:07.932Z,11.40
2022-11-26T12:04:21.692Z,11.60
2022-11-26T12:09:30.711Z,11.50
2022-11-26T12:14:39.908Z,11.60
2022-11-26T12:19:49.552Z,11.70
2022-11-26T12:24:56.623Z,11.60
2022-11-26T12:30:05.104Z,11.80
2022-11-26T12:35:15.849Z,11.80
2022-11-26T12:40:29.549Z,11.90
2022-11-26T12:45:49.639Z,11.80
2022-11-26T12:50:56.983Z,11.90
2022-11-26T12:56:07.298Z,11.90
2022-11-26T13:01:12.520Z,11.90
2022-11-26T13:06:27.671Z,12.00
2022-11-26T13:11:40.697Z,12.10
2022-11-26T13:16:51.403Z,12.20
2022-11-26T13:22:12.951Z,12.10
2022-11-26T13:27:38.397Z,11.90
2022-11-26T13:33:21.932Z,11.80
2022-11-26T13:38:34.198Z,11.70
2022-11-26T13:44:04.296Z,11.80
2022-11-26T13:49:14.050Z,11.70
2022-11-26T13:54:22.367Z,11.60
2022-11-26T13:59:28.746Z,11.70
2022-11-26T14:04:54.999Z,11.50
2022-11-26T14:10:00.080Z,11.60
2022-11-26T14:15:03.180Z,11.70
2022-11-26T14:20:12.064Z,11.60
2022-11-26T14:25:15.721Z,11.30
2022-11-26T14:30:26.988Z,11.40
2022-11-26T14:35:34.856Z,11.30
2022-11-26T14:40:39.600Z,11.10
2022-11-26T14:45:43.797Z,11.00
2022-11-26T14:50:48.444Z,11.00
2022-11-26T14:55:52.125Z,11.00
2022-11-26T15:01:18.585Z,10.70
2022-11-26T15:06:26.929Z,10.60
2022-11-26T15:11:31.201Z,10.50
2022-11-26T15:16:37.809Z,10.50
2022-11-26T15:21:42.286Z,10.50
2022-11-26T15:26:48.108Z,10.80
2022-11-26T15:31:50.999Z,11.00
2022-11-26T15:36:55.513Z,11.10
2022-11-26T15:42:03.315Z,11.20
2022-11-26T15:47:06.773Z,11.20
2022-11-26T15:52:13.467Z,11.20
2022-11-26T15:57:24.165Z,11.20
2022-11-26T16:02:28.994Z,11.10
2022-11-26T16:07:34.261Z,11.00
2022-11-26T16:12:40.648Z,10.90
2022-11-26T16:17:43.893Z,10.90
2022-11-26T16:22:50.215Z,10.80
2022-11-26T16:28:08.324Z,10.70
2022-11-26T16:33:11.415Z,10.10
2022-11-26T16:38:21.544Z,10.10
2022-11-26T16:43:24.458Z,10.30
2022-11-26T16:48:28.655Z,10.60
2022-11-26T16:53:32.921Z,10.40
2022-11-26T16:58:37.670Z,10.00
2022-11-26T17:03:40.655Z,10.00
2022-11-26T17:08:49.510Z,9.90
2022-11-26T17:13:53.136Z,9.90
2022-11-26T17:18:56.004Z,9.90
2022-11-26T17:24:00.330Z,9.80
2022-11-26T17:29:03.274Z,9.80
2022-11-26T17:34:06.277Z,9.70
2022-11-26T17:39:12.330Z,9.70
2022-11-26T17:44:15.213Z,9.60
2022-11-26T17:49:18.093Z,9.30
2022-11-26T17:54:22.452Z,9.20
2022-11-26T17:59:25.861Z,9.40
2022-11-26T18:04:29.008Z,9.60
2022-11-26T18:09:33.359Z,9.80
2022-11-26T18:14:41.831Z,9.60
2022-11-26T18:19:47.164Z,9.50
2022-11-26T18:24:56.785Z,9.00
2022-11-26T18:30:00.374Z,9.00
2022-11-26T18:35:03.407Z,8.80
2022-11-26T18:40:14.388Z,8.60
2022-11-26T18:45:17.456Z,8.50
2022-11-26T18:50:20.461Z,8.60
2022-11-26T18:55:24.759Z,8.40
2022-11-26T19:00:27.649Z,8.40
2022-11-26T19:05:30.537Z,8.30
2022-11-26T19:10:34.853Z,8.40
2022-11-26T19:15:42.099Z,8.30
2022-11-26T19:20:49.177Z,8.20
2022-11-26T19:25:53.477Z,8.30
2022-11-26T19:31:01.530Z,8.20
2022-11-26T19:36:05.466Z,8.20
2022-11-26T19:41:13.092Z,8.10
2022-11-26T19:46:17.961Z,8.20
2022-11-26T19:51:22.981Z,8.20
2022-11-26T19:56:29.369Z,8.10
2022-11-26T20:01:34.094Z,7.90
2022-11-26T20:06:37.954Z,7.90
2022-11-26T20:11:42.955Z,7.80
2022-11-26T20:16:46.909Z,7.70
2022-11-26T20:21:50.967Z,7.70
2022-11-26T20:26:55.299Z,7.10
2022-11-26T20:31:58.190Z,6.90
2022-11-26T20:37:01.845Z,6.90
2022-11-26T20:42:06.240Z,7.10
2022-11-26T20:47:09.169Z,7.20
2022-11-26T20:52:14.118Z,7.00
2022-11-26T20:57:20.426Z,7.10
2022-11-26T21:02:23.412Z,7.10
2022-11-26T21:07:27.404Z,7.30
2022-11-26T21:12:32.846Z,7.20
2022-11-26T21:17:36.131Z,7.00
2022-11-26T21:22:39.478Z,6.70
2022-11-26T21:27:43.849Z,6.70
2022-11-26T21:32:46.740Z,6.30
2022-11-26T21:37:49.628Z,6.50
2022-11-26T21:42:54.148Z,6.60
2022-11-26T21:47:57.007Z,6.30
2022-11-26T21:53:01.467Z,6.50
2022-11-26T21:58:05.703Z,6.40
2022-11-26T22:03:11.585Z,6.30
2022-11-26T22:08:14.593Z,6.30
2022-11-26T22:13:18.903Z,6.50
2022-11-26T22:18:21.788Z,6.60
2022-11-26T22:23:26.921Z,6.80
2022-11-26T22:28:31.243Z,7.00
2022-11-26T22:33:34.117Z,7.10
2022-11-26T22:38:37.617Z,7.00
2022-11-26T22:43:52.379Z,7.10
2022-11-26T22:48:56.948Z,7.20
2022-11-26T22:54:01.582Z,7.20
2022-11-26T22:59:07.226Z,7.20
2022-11-26T23:04:11.658Z,7.20
2022-11-26T23:09:14.681Z,7.40
2022-11-26T23:14:18.902Z,7.40
2022-11-26T23:19:21.784Z,7.40
2022-11-26T23:24:24.876Z,7.50
2022-11-26T23:29:29.175Z,7.50
2022-11-26T23:34:32.610Z,7.60
2022-11-26T23:39:35.515Z,7.60
2022-11-26T23:44:39.750Z,7.60
2022-11-26T23:49:42.732Z,7.70
2022-11-26T23:54:45.628Z,7.70
2022-11-26T23:59:49.870Z,7.70
